createdAt,value
2022-12-13T00:02:00.976Z,97508.91
2022-12-13T00:04:30.146Z,97514.03
2022-12-13T00:06:59.725Z,97516.69
2022-12-13T00:09:28.564Z,97507.53
2022-12-13T00:11:57.482Z,97506.00
2022-12-13T00:14:26.426Z,97502.66
2022-12-13T00:16:55.296Z,97494.53
2022-12-13T00:19:25.498Z,97482.38
2022-12-13T00:21:54.476Z,97485.97
2022-12-13T00:24:23.300Z,97491.97
2022-12-13T00:26:55.014Z,97482.69
2022-12-13T00:29:23.826Z,97487.78
2022-12-13T00:31:59.924Z,97479.34
2022-12-13T00:34:29.785Z,97476.06
2022-12-13T00:37:01.717Z,97469.34
2022-12-13T00:39:30.628Z,97474.25
2022-12-13T00:41:59.447Z,97475.03
2022-12-13T00:44:28.484Z,97472.63
2022-12-13T00:46:57.443Z,97465.69
2022-12-13T00:49:27.645Z,97466.47
2022-12-13T00:51:56.463Z,97462.91
2022-12-13T00:54:25.395Z,97466.97
2022-12-13T00:56:54.555Z,97467.16
2022-12-13T00:59:23.377Z,97464.72
2022-12-13T01:01:54.205Z,97458.25
2022-12-13T01:04:23.213Z,97456.72
2022-12-13T01:06:52.240Z,97447.72
2022-12-13T01:09:24.768Z,97443.56
2022-12-13T01:12:01.120Z,97447.72
2022-12-13T01:14:30.571Z,97439.50
2022-12-13T01:17:00.901Z,97445.28
2022-12-13T01:19:30.486Z,97441.69
2022-12-13T01:22:04.599Z,97432.88
2022-12-13T01:24:34.036Z,97431.47
2022-12-13T01:27:02.822Z,97428.00
2022-12-13T01:29:31.617Z,97431.16
2022-12-13T01:32:00.475Z,97427.78
2022-12-13T01:34:29.455Z,97420.03
2022-12-13T01:36:58.959Z,97422.81
2022-12-13T01:39:28.654Z,97408.34
2022-12-13T01:42:00.355Z,97418.53
2022-12-13T01:44:56.707Z,97406.59
2022-12-13T01:47:47.820Z,97404.75
2022-12-13T01:50:27.291Z,97406.22
2022-12-13T01:53:00.176Z,97395.72
2022-12-13T01:55:33.228Z,97389.22
2022-12-13T01:58:11.171Z,97391.06
2022-12-13T02:00:41.625Z,97391.06
2022-12-13T02:03:20.804Z,97383.53
2022-12-13T02:06:42.686Z,97380.81
2022-12-13T02:09:12.829Z,97379.28
2022-12-13T02:11:44.263Z,97388.66
2022-12-13T02:14:14.007Z,97388.53
2022-12-13T02:16:53.589Z,97382.09
2022-12-13T02:20:01.607Z,97373.53
2022-12-13T02:22:56.131Z,97373.78
2022-12-13T02:26:04.254Z,97373.00
2022-12-13T02:29:01.979Z,97362.81
2022-12-13T02:31:34.912Z,97362.91
2022-12-13T02:34:34.000Z,97356.94
2022-12-13T02:37:25.770Z,97350.78
2022-12-13T02:39:59.691Z,97346.81
2022-12-13T02:42:38.135Z,97345.31
2022-12-13T02:45:09.847Z,97340.81
2022-12-13T02:47:43.943Z,97338.91
2022-12-13T02:50:15.582Z,97339.84
2022-12-13T02:52:47.179Z,97338.59
2022-12-13T02:55:17.624Z,97339.59
2022-12-13T02:57:49.264Z,97332.88
2022-12-13T03:00:23.487Z,97328.56
2022-12-13T03:03:07.819Z,97324.78
2022-12-13T03:06:12.996Z,97319.66
2022-12-13T03:09:08.373Z,97314.00
2022-12-13T03:12:09.388Z,97310.22
2022-12-13T03:14:46.144Z,97317.50
2022-12-13T03:17:17.875Z,97320.09
2022-12-13T03:19:47.745Z,97312.69
2022-12-13T03:22:17.799Z,97313.00
2022-12-13T03:24:46.825Z,97304.94
2022-12-13T03:27:15.628Z,97303.59
2022-12-13T03:29:44.511Z,97295.25
2022-12-13T03:32:13.302Z,97290.97
2022-12-13T03:34:44.061Z,97297.66
2022-12-13T03:37:14.338Z,97304.22
2022-12-13T03:39:43.329Z,97300.56
2022-12-13T03:42:12.371Z,97284.84
2022-12-13T03:44:41.152Z,97288.88
2022-12-13T03:47:10.115Z,97289.81
2022-12-13T03:49:38.863Z,97283.59
2022-12-13T03:52:07.826Z,97288.16
2022-12-13T03:54:36.858Z,97284.19
2022-12-13T03:57:05.706Z,97282.28
2022-12-13T03:59:34.579Z,97272.75
2022-12-13T04:02:04.219Z,97276.91
2022-12-13T04:04:33.416Z,97275.31
2022-12-13T04:07:02.477Z,97265.97
2022-12-13T04:09:31.287Z,97268.03
2022-12-13T04:12:18.226Z,97255.47
2022-12-13T04:14:47.081Z,97257.03
2022-12-13T04:17:16.051Z,97252.75
2022-12-13T04:19:44.920Z,97258.28
2022-12-13T04:22:13.677Z,97261.34
2022-12-13T04:24:42.491Z,97260.38
2022-12-13T04:27:11.365Z,97258.84
2022-12-13T04:29:40.161Z,97255.69
2022-12-13T04:32:27.217Z,97250.72
2022-12-13T04:35:01.545Z,97254.69
2022-12-13T04:37:32.594Z,97246.31
2022-12-13T04:40:01.534Z,97233.59
2022-12-13T04:42:32.246Z,97243.00
2022-12-13T04:45:01.095Z,97238.66
2022-12-13T04:47:31.938Z,97246.97
2022-12-13T04:50:00.865Z,97242.91
2022-12-13T04:52:31.335Z,97238.97
2022-12-13T04:55:00.172Z,97230.00
2022-12-13T04:57:29.033Z,97236.78
2022-12-13T04:59:57.851Z,97225.53
2022-12-13T05:02:28.947Z,97215.84
2022-12-13T05:04:58.117Z,97224.91
2022-12-13T05:07:27.921Z,97213.66
2022-12-13T05:09:56.757Z,97209.00
2022-12-13T05:12:25.846Z,97206.81
2022-12-13T05:14:54.801Z,97201.50
2022-12-13T05:17:23.944Z,97200.56
2022-12-13T05:19:52.838Z,97191.84
2022-12-13T05:22:21.678Z,97192.88
2022-12-13T05:24:50.470Z,97182.25
2022-12-13T05:27:25.933Z,97187.75
2022-12-13T05:30:04.964Z,97189.31
2022-12-13T05:32:43.107Z,97189.19
2022-12-13T05:35:21.790Z,97186.75
2022-12-13T05:37:54.595Z,97180.50
2022-12-13T05:40:24.797Z,97181.78
2022-12-13T05:43:00.645Z,97178.28
2022-12-13T05:45:32.307Z,97176.84
2022-12-13T05:48:02.782Z,97174.63
2022-12-13T05:50:31.619Z,97169.13
2022-12-13T05:53:00.576Z,97163.63
2022-12-13T05:55:29.426Z,97152.34
2022-12-13T05:58:02.504Z,97154.28
2022-12-13T06:00:32.244Z,97154.91
2022-12-13T06:03:01.938Z,97152.69
2022-12-13T06:05:32.006Z,97155.91
2022-12-13T06:08:01.301Z,97146.44
2022-12-13T06:10:35.123Z,97149.50
2022-12-13T06:13:21.988Z,97144.84
2022-12-13T06:16:01.571Z,97137.47
2022-12-13T06:18:36.576Z,97127.19
2022-12-13T06:21:07.760Z,97123.66
2022-12-13T06:23:36.658Z,97125.09
2022-12-13T06:26:07.542Z,97123.50
2022-12-13T06:28:36.695Z,97118.66
2022-12-13T06:31:05.843Z,97127.34
2022-12-13T06:33:39.570Z,97118.78
2022-12-13T06:36:08.953Z,97121.66
2022-12-13T06:38:43.560Z,97116.31
2022-12-13T06:41:15.799Z,97120.16
2022-12-13T06:43:46.083Z,97121.47
2022-12-13T06:46:16.357Z,97120.84
2022-12-13T06:48:45.707Z,97119.72
2022-12-13T06:51:22.830Z,97121.94
2022-12-13T06:53:53.155Z,97118.03
2022-12-13T06:56:21.975Z,97115.56
2022-12-13T06:58:50.725Z,97118.13
2022-12-13T07:01:24.892Z,97117.16
2022-12-13T07:03:58.461Z,97115.66
2022-12-13T07:06:27.631Z,97117.44
2022-12-13T07:08:58.803Z,97118.03
2022-12-13T07:11:33.833Z,97119.47
2022-12-13T07:14:02.807Z,97120.28
2022-12-13T07:16:33.038Z,97119.78
2022-12-13T07:19:04.887Z,97122.81
2022-12-13T07:21:52.581Z,97116.47
2022-12-13T07:24:21.436Z,97115.00
2022-12-13T07:26:50.371Z,97110.50
2022-12-13T07:29:22.084Z,97111.09
2022-12-13T07:31:51.374Z,97112.00
2022-12-13T07:34:20.328Z,97115.94
2022-12-13T07:36:51.492Z,97106.81
2022-12-13T07:39:20.415Z,97109.38
2022-12-13T07:41:49.271Z,97105.50
2022-12-13T07:44:18.500Z,97100.78
2022-12-13T07:46:48.048Z,97101.88
2022-12-13T07:49:17.002Z,97104.00
2022-12-13T07:51:45.869Z,97105.25
2022-12-13T07:54:14.755Z,97104.06
2022-12-13T07:56:43.673Z,97098.44
2022-12-13T07:59:12.634Z,97102.25
2022-12-13T08:01:42.273Z,97098.50
2022-12-13T08:04:11.319Z,97101.88
2022-12-13T08:06:40.158Z,97102.31
2022-12-13T08:09:09.070Z,97118.81
2022-12-13T08:11:37.981Z,97111.69
2022-12-13T08:14:07.049Z,97122.25
2022-12-13T08:16:35.993Z,97120.09
2022-12-13T08:19:04.978Z,97115.88
2022-12-13T08:21:54.556Z,97122.25
2022-12-13T08:24:25.810Z,97117.81
2022-12-13T08:27:01.781Z,97114.06
2022-12-13T08:29:34.588Z,97118.19
2022-12-13T08:32:09.499Z,97116.50
2022-12-13T08:34:38.818Z,97119.19
2022-12-13T08:37:07.770Z,97118.81
2022-12-13T08:39:38.421Z,97115.72
2022-12-13T08:42:19.338Z,97119.66
2022-12-13T08:44:51.123Z,97119.94
2022-12-13T08:47:25.944Z,97116.22
2022-12-13T08:50:02.070Z,97110.97
2022-12-13T08:52:40.181Z,97109.66
2022-12-13T08:55:11.890Z,97119.22
2022-12-13T08:57:43.410Z,97118.69
2022-12-13T09:00:16.762Z,97118.16
2022-12-13T09:02:46.060Z,97117.78
2022-12-13T09:05:33.256Z,97116.16
2022-12-13T09:08:22.863Z,97116.28
2022-12-13T09:11:01.163Z,97110.53
2022-12-13T09:13:43.734Z,97117.25
2022-12-13T09:16:23.483Z,97116.28
2022-12-13T09:18:56.428Z,97113.88
2022-12-13T09:21:31.736Z,97116.44
2022-12-13T09:24:02.472Z,97120.78
2022-12-13T09:26:38.065Z,97115.75
2022-12-13T09:29:10.523Z,97121.84
2022-12-13T09:31:41.345Z,97112.41
2022-12-13T09:34:11.410Z,97110.13
2022-12-13T09:36:40.743Z,97111.06
2022-12-13T09:39:12.535Z,97102.97
2022-12-13T09:41:51.406Z,97110.53
2022-12-13T09:44:32.072Z,97105.53
2022-12-13T09:47:22.722Z,97109.19
2022-12-13T09:49:53.747Z,97102.59
2022-12-13T09:52:26.395Z,97101.44
2022-12-13T09:55:06.570Z,97104.66
2022-12-13T09:57:38.291Z,97103.03
2022-12-13T10:00:14.536Z,97101.44
2022-12-13T10:02:56.136Z,97099.94
2022-12-13T10:05:39.499Z,97113.56
2022-12-13T10:08:15.220Z,97107.75
2022-12-13T10:10:44.319Z,97109.13
2022-12-13T10:13:20.044Z,97113.97
2022-12-13T10:15:54.862Z,97125.69
2022-12-13T10:18:34.526Z,97116.94
2022-12-13T10:21:29.673Z,97127.19
2022-12-13T10:24:36.452Z,97123.94
2022-12-13T10:27:18.706Z,97124.22
2022-12-13T10:30:08.633Z,97130.19
2022-12-13T10:32:54.439Z,97132.06
2022-12-13T10:35:37.492Z,97127.06
2022-12-13T10:38:09.556Z,97126.13
2022-12-13T10:40:47.383Z,97116.44
2022-12-13T10:43:19.553Z,97121.28
2022-12-13T10:45:58.419Z,97122.22
2022-12-13T10:48:38.391Z,97131.00
2022-12-13T10:51:15.226Z,97129.38
2022-12-13T10:53:59.695Z,97128.44
2022-12-13T10:56:46.104Z,97131.00
2022-12-13T10:59:26.403Z,97130.84
2022-12-13T11:01:56.167Z,97123.16
2022-12-13T11:04:32.726Z,97135.41
2022-12-13T11:07:22.599Z,97133.00
2022-12-13T11:09:52.752Z,97133.00
2022-12-13T11:12:27.876Z,97126.13
2022-12-13T11:15:01.525Z,97124.25
2022-12-13T11:17:34.305Z,97134.50
2022-12-13T11:20:16.409Z,97130.59
2022-12-13T11:22:45.332Z,97132.47
2022-12-13T11:25:24.700Z,97137.72
2022-12-13T11:28:29.032Z,97131.00
2022-12-13T11:31:03.747Z,97138.69
2022-12-13T11:34:11.742Z,97125.47
2022-12-13T11:36:54.252Z,97132.75
2022-12-13T11:39:33.472Z,97141.25
2022-12-13T11:42:30.551Z,97138.41
2022-12-13T11:45:23.142Z,97137.19
2022-12-13T11:48:10.238Z,97137.19
2022-12-13T11:50:42.029Z,97144.44
2022-12-13T11:53:19.818Z,97150.25
2022-12-13T11:55:56.059Z,97143.22
2022-12-13T11:59:16.307Z,97144.06
2022-12-13T12:01:56.887Z,97144.06
2022-12-13T12:04:58.363Z,97144.06
2022-12-13T12:07:58.416Z,97153.34
2022-12-13T12:10:49.379Z,97151.88
2022-12-13T12:13:18.798Z,97147.16
2022-12-13T12:16:07.703Z,97149.31
2022-12-13T12:18:37.690Z,97153.63
2022-12-13T12:21:09.941Z,97152.00
2022-12-13T12:23:53.813Z,97157.94
2022-12-13T12:26:50.983Z,97152.94
2022-12-13T12:29:38.412Z,97142.31
2022-12-13T12:32:21.193Z,97153.63
2022-12-13T12:35:16.279Z,97155.25
2022-12-13T12:37:54.149Z,97153.19
2022-12-13T12:41:14.303Z,97157.38
2022-12-13T12:43:35.584Z,97159.66
2022-12-13T12:46:26.831Z,97163.56
2022-12-13T12:49:32.655Z,97170.03
2022-12-13T12:52:24.291Z,97165.59
2022-12-13T12:55:12.723Z,97177.19
2022-12-13T12:57:56.641Z,97175.97
2022-12-13T13:00:44.774Z,97176.66
2022-12-13T13:03:28.920Z,97179.56
2022-12-13T13:06:05.730Z,97187.38
2022-12-13T13:08:41.709Z,97184.69
2022-12-13T13:11:24.804Z,97179.88
2022-12-13T13:14:02.201Z,97182.44
2022-12-13T13:16:34.423Z,97180.66
2022-12-13T13:19:41.527Z,97179.06
2022-12-13T13:22:43.481Z,97180.81
2022-12-13T13:25:23.838Z,97178.38
2022-12-13T13:28:01.040Z,97187.97
2022-12-13T13:30:31.330Z,97182.16
2022-12-13T13:33:00.611Z,97170.72
2022-12-13T13:35:33.407Z,97183.38
2022-12-13T13:38:17.935Z,97185.28
2022-12-13T13:40:46.956Z,97184.59
2022-12-13T13:43:18.543Z,97179.75
2022-12-13T13:45:59.958Z,97179.06
2022-12-13T13:48:51.778Z,97179.06
2022-12-13T13:52:23.870Z,97185.16
2022-12-13T13:55:21.293Z,97184.75
2022-12-13T13:58:11.814Z,97181.63
2022-12-13T14:01:17.865Z,97179.63
2022-12-13T14:04:25.838Z,97170.59
2022-12-13T14:07:11.570Z,97179.34
2022-12-13T14:10:08.068Z,97171.13
2022-12-13T14:13:00.067Z,97181.63
2022-12-13T14:16:06.994Z,97175.97
2022-12-13T14:19:12.376Z,97176.63
2022-12-13T14:22:23.897Z,97175.56
2022-12-13T14:25:01.641Z,97177.59
2022-12-13T14:27:47.230Z,97182.00
2022-12-13T14:30:28.237Z,97172.84
2022-12-13T14:32:58.962Z,97179.59
2022-12-13T14:35:33.196Z,97182.44
2022-12-13T14:38:06.000Z,97184.59
2022-12-13T14:40:37.756Z,97187.00
2022-12-13T14:43:24.358Z,97192.25
2022-12-13T14:45:58.775Z,97187.50
2022-12-13T14:48:30.300Z,97190.88
2022-12-13T14:50:59.279Z,97192.09
2022-12-13T14:53:45.158Z,97189.91
2022-12-13T14:56:27.628Z,97195.84
2022-12-13T14:59:01.268Z,97197.69
2022-12-13T15:01:36.390Z,97187.88
2022-12-13T15:04:19.905Z,97195.69
2022-12-13T15:06:56.668Z,97195.13
2022-12-13T15:09:29.242Z,97187.72
2022-12-13T15:12:23.441Z,97190.66
2022-12-13T15:15:03.198Z,97191.56
2022-12-13T15:17:41.533Z,97182.72
2022-12-13T15:20:29.165Z,97181.78
2022-12-13T15:23:05.308Z,97178.44
2022-12-13T15:25:37.941Z,97187.16
2022-12-13T15:28:08.753Z,97194.53
2022-12-13T15:30:39.219Z,97193.88
2022-12-13T15:33:18.902Z,97189.50
2022-12-13T15:36:07.219Z,97184.91
2022-12-13T15:38:40.866Z,97195.94
2022-12-13T15:41:19.224Z,97195.13
2022-12-13T15:43:55.173Z,97201.16
2022-12-13T15:46:34.106Z,97202.13
2022-12-13T15:49:03.789Z,97193.91
2022-12-13T15:51:32.815Z,97200.09
2022-12-13T15:54:04.332Z,97202.91
2022-12-13T15:56:36.612Z,97211.50
2022-12-13T15:59:07.493Z,97208.63
2022-12-13T16:01:38.036Z,97210.50
2022-12-13T16:04:07.659Z,97214.13
2022-12-13T16:06:37.066Z,97218.53
2022-12-13T16:09:08.568Z,97218.41
2022-12-13T16:11:48.453Z,97221.78
2022-12-13T16:14:34.608Z,97219.91
2022-12-13T16:17:15.826Z,97223.28
2022-12-13T16:19:44.831Z,97224.22
2022-12-13T16:22:13.670Z,97226.19
2022-12-13T16:24:42.440Z,97228.63
2022-12-13T16:27:11.317Z,97228.75
2022-12-13T16:29:40.577Z,97232.00
2022-12-13T16:32:11.337Z,97232.00
2022-12-13T16:34:40.808Z,97228.63
2022-12-13T16:37:26.319Z,97236.97
2022-12-13T16:39:57.252Z,97237.13
2022-12-13T16:42:27.034Z,97240.72
2022-12-13T16:45:32.475Z,97240.84
2022-12-13T16:47:50.414Z,97243.66
2022-12-13T16:50:21.496Z,97246.31
2022-12-13T16:52:50.468Z,97243.09
2022-12-13T16:55:19.249Z,97240.53
2022-12-13T16:57:58.502Z,97244.94
2022-12-13T17:00:30.402Z,97242.38
2022-12-13T17:03:00.654Z,97247.50
2022-12-13T17:05:30.112Z,97237.53
2022-12-13T17:07:58.935Z,97250.31
2022-12-13T17:10:28.578Z,97255.78
2022-12-13T17:12:57.559Z,97254.78
2022-12-13T17:15:26.753Z,97254.44
2022-12-13T17:17:55.941Z,97256.94
2022-12-13T17:20:25.726Z,97255.94
2022-12-13T17:22:54.667Z,97261.66
2022-12-13T17:25:24.414Z,97253.66
2022-12-13T17:27:53.217Z,97262.25
2022-12-13T17:30:22.087Z,97263.41
2022-12-13T17:32:51.059Z,97273.75
2022-12-13T17:35:20.427Z,97274.56
2022-12-13T17:37:49.602Z,97271.31
2022-12-13T17:40:18.556Z,97284.19
2022-12-13T17:42:50.389Z,97291.84
2022-12-13T17:45:20.240Z,97289.53
2022-12-13T17:47:49.277Z,97292.88
2022-12-13T17:50:18.205Z,97292.22
2022-12-13T17:52:47.069Z,97300.53
2022-12-13T17:55:18.660Z,97293.69
2022-12-13T17:57:47.521Z,97292.88
2022-12-13T18:00:17.316Z,97291.38
2022-12-13T18:02:55.874Z,97299.16
2022-12-13T18:05:28.299Z,97299.63
2022-12-13T18:07:57.276Z,97298.81
2022-12-13T18:10:29.827Z,97296.38
2022-12-13T18:12:59.618Z,97305.06
2022-12-13T18:15:28.747Z,97311.81
2022-12-13T18:18:11.132Z,97309.38
2022-12-13T18:20:41.182Z,97300.91
2022-12-13T18:23:10.253Z,97298.72
2022-12-13T18:25:39.965Z,97311.22
2022-12-13T18:28:12.388Z,97302.06
2022-12-13T18:30:41.274Z,97305.78
2022-12-13T18:33:10.762Z,97310.31
2022-12-13T18:35:39.493Z,97304.38
2022-12-13T18:38:08.696Z,97311.09
2022-12-13T18:40:38.063Z,97309.34
2022-12-13T18:43:06.967Z,97315.28
2022-12-13T18:45:36.121Z,97314.56
2022-12-13T18:48:05.108Z,97308.91
2022-12-13T18:50:34.800Z,97315.41
2022-12-13T18:53:03.646Z,97318.75
2022-12-13T18:55:34.011Z,97316.22
2022-12-13T18:58:02.828Z,97329.88
2022-12-13T19:00:33.150Z,97323.25
2022-12-13T19:03:02.629Z,97322.59
2022-12-13T19:05:31.526Z,97316.69
2022-12-13T19:08:00.273Z,97315.84
2022-12-13T19:10:29.082Z,97326.06
2022-12-13T19:12:58.102Z,97317.50
2022-12-13T19:15:29.694Z,97317.72
2022-12-13T19:17:58.849Z,97320.28
2022-12-13T19:20:27.773Z,97315.63
2022-12-13T19:22:57.057Z,97321.66
2022-12-13T19:25:25.863Z,97314.50
2022-12-13T19:27:57.345Z,97315.66
2022-12-13T19:30:26.487Z,97324.22
2022-12-13T19:32:55.253Z,97323.44
2022-12-13T19:35:24.129Z,97334.78
2022-12-13T19:37:53.780Z,97331.50
2022-12-13T19:40:22.683Z,97335.34
2022-12-13T19:42:51.537Z,97329.56
2022-12-13T19:45:20.761Z,97338.84
2022-12-13T19:47:49.614Z,97335.56
2022-12-13T19:50:18.744Z,97339.75
2022-12-13T19:52:47.554Z,97350.75
2022-12-13T19:55:16.467Z,97340.00
2022-12-13T19:57:45.257Z,97342.63
2022-12-13T20:00:15.601Z,97345.41
2022-12-13T20:02:44.544Z,97350.84
2022-12-13T20:05:13.468Z,97355.59
2022-12-13T20:07:42.440Z,97353.03
2022-12-13T20:10:12.621Z,97353.16
2022-12-13T20:12:41.454Z,97354.38
2022-12-13T20:15:10.765Z,97353.34
2022-12-13T20:17:39.584Z,97362.00
2022-12-13T20:20:08.874Z,97364.66
2022-12-13T20:22:37.800Z,97368.38
2022-12-13T20:25:07.893Z,97366.16
2022-12-13T20:27:36.837Z,97365.66
2022-12-13T20:30:07.038Z,97371.03
2022-12-13T20:32:35.859Z,97372.84
2022-12-13T20:35:04.984Z,97369.13
2022-12-13T20:37:33.880Z,97363.25
2022-12-13T20:40:02.709Z,97369.72
2022-12-13T20:42:34.087Z,97376.34
2022-12-13T20:45:03.156Z,97381.44
2022-12-13T20:47:37.586Z,97380.59
2022-12-13T20:50:07.918Z,97386.97
2022-12-13T20:52:37.101Z,97389.66
2022-12-13T20:55:06.944Z,97391.28
2022-12-13T20:57:35.692Z,97384.66
2022-12-13T21:00:06.045Z,97387.56
2022-12-13T21:02:35.170Z,97386.94
2022-12-13T21:05:04.460Z,97392.66
2022-12-13T21:07:51.894Z,97397.84
2022-12-13T21:10:20.711Z,97399.09
2022-12-13T21:12:49.543Z,97406.75
2022-12-13T21:15:18.402Z,97397.69
2022-12-13T21:17:47.372Z,97404.19
2022-12-13T21:20:16.405Z,97409.06
2022-12-13T21:22:45.857Z,97407.47
2022-12-13T21:25:14.868Z,97409.06
2022-12-13T21:27:43.623Z,97416.47
2022-12-13T21:30:17.467Z,97424.34
2022-12-13T21:32:51.364Z,97428.16
2022-12-13T21:35:21.903Z,97438.44
2022-12-13T21:37:50.751Z,97433.78
2022-12-13T21:40:19.608Z,97429.50
2022-12-13T21:42:48.382Z,97441.31
2022-12-13T21:45:17.384Z,97438.66
2022-12-13T21:47:46.195Z,97439.16
2022-12-13T21:50:15.005Z,97444.34
2022-12-13T21:52:49.426Z,97445.97
2022-12-13T21:58:29.482Z,97451.91
2022-12-13T22:00:59.156Z,97452.47
2022-12-13T22:03:28.512Z,97459.47
2022-12-13T22:05:57.312Z,97458.19
2022-12-13T22:08:26.176Z,97462.88
2022-12-13T22:11:19.362Z,97459.72
2022-12-13T22:13:50.195Z,97454.75
2022-12-13T22:16:19.064Z,97459.03
2022-12-13T22:18:48.122Z,97460.75
2022-12-13T22:21:16.939Z,97464.22
2022-12-13T22:23:45.708Z,97465.75
2022-12-13T22:26:14.567Z,97474.06
2022-12-13T22:28:43.382Z,97476.50
2022-12-13T22:31:12.592Z,97485.06
2022-12-13T22:33:41.417Z,97486.78
2022-12-13T22:36:10.650Z,97492.78
2022-12-13T22:38:39.433Z,97488.25
2022-12-13T22:41:08.448Z,97494.56
2022-12-13T22:43:37.910Z,97489.53
2022-12-13T22:46:09.036Z,97489.66
2022-12-13T22:48:38.244Z,97487.94
2022-12-13T22:51:10.280Z,97499.25
2022-12-13T22:53:40.838Z,97505.22
2022-12-13T22:56:17.330Z,97508.28
2022-12-13T22:58:47.605Z,97511.41
2022-12-13T23:01:20.999Z,97514.78
2022-12-13T23:03:50.443Z,97520.69
2022-12-13T23:06:22.734Z,97525.66
2022-12-13T23:08:58.047Z,97536.06
2022-12-13T23:11:46.379Z,97534.31
2022-12-13T23:14:18.246Z,97523.94
2022-12-13T23:16:47.634Z,97532.59
2022-12-13T23:19:41.154Z,97533.63
2022-12-13T23:22:09.098Z,97531.00
2022-12-13T23:24:37.861Z,97530.72
2022-12-13T23:27:10.490Z,97535.06
2022-12-13T23:29:41.071Z,97533.75
2022-12-13T23:32:09.891Z,97537.56
2022-12-13T23:34:39.424Z,97543.06
2022-12-13T23:37:08.542Z,97541.94
2022-12-13T23:39:37.314Z,97535.25
2022-12-13T23:42:06.221Z,97542.66
2022-12-13T23:44:35.069Z,97551.41
2022-12-13T23:47:03.890Z,97552.53
2022-12-13T23:49:32.959Z,97554.47
2022-12-13T23:52:01.860Z,97559.06
2022-12-13T23:54:30.698Z,97563.56
2022-12-13T23:56:59.549Z,97570.97
2022-12-13T23:59:28.574Z,97566.78
